Time;durP1;ratioP1;P1;durP2;ratioP2;P2;SDS_P1;SDS_P2;PMS_P1;PMS_P2;Temp;Humidity;BMP_temperature;BMP_pressure;BME280_temperature;BME280_humidity;BME280_pressure;Samples;Min_cycle;Max_cycle;Signal;HPM_P1;HPM_P2
2021/05/27 00:01:38;;;;;;;14.20;10.52;;;21.60;90.40;;;;;;5055428;28;20028;-82
2021/05/27 00:04:08;;;;;;;15.90;11.00;;;21.60;90.40;;;;;;5054849;28;20043;-82
2021/05/27 00:06:37;;;;;;;17.38;11.02;;;21.50;90.40;;;;;;5038981;28;20039;-83
2021/05/27 00:09:06;;;;;;;16.58;11.90;;;21.50;90.40;;;;;;5021543;28;20044;-83
2021/05/27 00:11:35;;;;;;;17.40;11.57;;;21.50;90.40;;;;;;5038402;28;20033;-83
2021/05/27 00:14:07;;;;;;;17.73;12.27;;;21.50;90.40;;;;;;5055254;28;20024;-83
2021/05/27 00:16:36;;;;;;;16.25;11.18;;;21.50;90.40;;;;;;5055621;28;20028;-83
2021/05/27 00:19:05;;;;;;;17.80;12.23;;;21.50;90.40;;;;;;5073112;28;20111;-83
2021/05/27 00:21:31;;;;;;;15.02;11.23;;;21.50;90.40;;;;;;5072785;28;20071;-83
2021/05/27 00:23:57;;;;;;;16.85;12.02;;;21.50;90.40;;;;;;5038439;28;20033;-83
2021/05/27 00:26:23;;;;;;;18.23;12.98;;;21.50;90.40;;;;;;5054611;28;20040;-83
2021/05/27 00:29:10;;;;;;;16.38;12.95;;;21.50;90.40;;;;;;5073015;28;20036;-83
2021/05/27 00:31:39;;;;;;;17.35;13.00;;;21.50;90.40;;;;;;5038976;28;20059;-83
2021/05/27 00:34:05;;;;;;;17.80;12.60;;;21.50;90.40;;;;;;5073513;28;20128;-83
2021/05/27 00:36:31;;;;;;;18.27;13.55;;;21.50;90.40;;;;;;5054848;28;20494;-82
2021/05/27 00:38:57;;;;;;;19.27;13.27;;;21.60;90.40;;;;;;5055533;28;20060;-82
2021/05/27 00:41:23;;;;;;;17.95;13.45;;;21.50;90.40;;;;;;5055628;28;20059;-82
2021/05/27 00:43:49;;;;;;;17.00;13.77;;;21.50;90.40;;;;;;5055674;28;20029;-82
2021/05/27 00:46:25;;;;;;;19.88;14.05;;;21.50;90.40;;;;;;5039994;28;20078;-83
2021/05/27 00:48:59;;;;;;;21.10;14.43;;;21.50;90.40;;;;;;5059810;28;20057;-83
2021/05/27 00:51:31;;;;;;;19.95;14.10;;;21.50;90.40;;;;;;5059646;28;20470;-82
2021/05/27 00:54:00;;;;;;;20.58;14.50;;;21.50;90.40;;;;;;5059400;28;20033;-82
2021/05/27 00:56:27;;;;;;;20.48;14.48;;;21.50;90.40;;;;;;5058540;28;20032;-82
2021/05/27 00:58:59;;;;;;;18.90;14.80;;;21.50;90.40;;;;;;5059413;28;20036;-83
2021/05/27 01:01:28;;;;;;;20.70;15.55;;;21.50;90.40;;;;;;5026225;28;20036;-82
2021/05/27 01:03:54;;;;;;;22.25;14.93;;;21.50;90.40;;;;;;5041273;28;20144;-82
2021/05/27 01:06:20;;;;;;;20.20;15.05;;;21.50;90.40;;;;;;5057852;28;20474;-83
2021/05/27 01:08:46;;;;;;;19.60;15.18;;;21.50;90.40;;;;;;5058679;28;20486;-83
2021/05/27 01:11:18;;;;;;;19.58;15.20;;;21.50;90.40;;;;;;5058891;28;20082;-82
2021/05/27 01:13:48;;;;;;;21.77;16.08;;;21.50;90.40;;;;;;5058641;28;20028;-82
2021/05/27 01:16:23;;;;;;;18.92;14.82;;;21.50;90.40;;;;;;5058592;28;20378;-82
2021/05/27 01:18:52;;;;;;;20.65;15.65;;;21.50;90.40;;;;;;5042881;28;20044;-82
2021/05/27 01:21:21;;;;;;;20.15;15.63;;;21.50;90.40;;;;;;5025242;28;20028;-83
2021/05/27 01:23:48;;;;;;;17.27;15.00;;;21.50;90.40;;;;;;5057960;28;20451;-83
2021/05/27 01:26:24;;;;;;;21.80;16.48;;;21.50;90.40;;;;;;5058117;28;20134;-82
2021/05/27 01:28:50;;;;;;;21.25;16.17;;;21.60;90.50;;;;;;5058476;28;20048;-82
2021/05/27 01:31:16;;;;;;;21.85;16.38;;;21.50;90.40;;;;;;5041392;28;20029;-82
2021/05/27 01:33:41;;;;;;;24.23;16.85;;;21.50;90.40;;;;;;5075227;28;20024;-82
2021/05/27 01:36:08;;;;;;;21.23;16.20;;;21.50;90.40;;;;;;5040914;28;20119;-83
2021/05/27 01:38:34;;;;;;;20.10;16.40;;;21.50;90.40;;;;;;5057175;28;20090;-82
2021/05/27 01:41:02;;;;;;;20.73;16.05;;;21.50;90.40;;;;;;5057358;28;20470;-83
2021/05/27 01:43:29;;;;;;;22.17;16.85;;;21.50;90.40;;;;;;5057047;28;20035;-83
2021/05/27 01:45:55;;;;;;;19.73;15.73;;;21.50;90.40;;;;;;5057253;28;20481;-82
2021/05/27 01:48:20;;;;;;;21.23;17.02;;;21.50;90.40;;;;;;5057121;28;20178;-83
2021/05/27 01:50:48;;;;;;;21.15;15.98;;;21.50;90.40;;;;;;5040376;28;20087;-83
2021/05/27 01:53:14;;;;;;;22.63;16.50;;;21.50;90.40;;;;;;5057569;28;20459;-82
2021/05/27 01:55:45;;;;;;;22.20;16.45;;;21.50;90.40;;;;;;5074890;28;20028;-82
2021/05/27 01:58:12;;;;;;;21.35;16.98;;;21.50;90.40;;;;;;5056637;28;20021;-82
2021/05/27 02:00:38;;;;;;;19.85;16.05;;;21.50;90.40;;;;;;5040348;28;20459;-83
2021/05/27 02:03:04;;;;;;;22.60;17.27;;;21.60;90.50;;;;;;5056962;28;20028;-83
2021/05/27 02:05:30;;;;;;;24.23;17.15;;;21.50;90.40;;;;;;5056682;28;20036;-82
2021/05/27 02:07:56;;;;;;;21.40;16.58;;;21.50;90.40;;;;;;5056809;28;20131;-82
2021/05/27 02:10:21;;;;;;;20.92;16.02;;;21.50;90.50;;;;;;5056817;28;20029;-82
2021/05/27 02:12:47;;;;;;;20.58;16.48;;;21.60;90.50;;;;;;5056435;28;20075;-82
2021/05/27 02:15:13;;;;;;;20.17;16.13;;;21.50;90.50;;;;;;5074693;28;20506;-82
2021/05/27 02:17:39;;;;;;;21.17;16.08;;;21.50;90.50;;;;;;5074454;28;20024;-82
2021/05/27 02:20:06;;;;;;;21.58;16.65;;;21.50;90.50;;;;;;5040014;28;20120;-83
2021/05/27 02:22:31;;;;;;;21.58;16.55;;;21.50;90.50;;;;;;5074303;28;20032;-83
2021/05/27 02:24:57;;;;;;;22.48;15.77;;;21.50;90.50;;;;;;5040111;28;20033;-82
2021/05/27 02:27:23;;;;;;;19.50;15.73;;;21.50;90.50;;;;;;5056807;28;20045;-83
2021/05/27 02:29:48;;;;;;;24.10;16.73;;;21.50;90.50;;;;;;5074437;28;20458;-83
2021/05/27 02:32:14;;;;;;;20.50;15.23;;;21.50;90.50;;;;;;5074404;28;20060;-82
2021/05/27 02:34:40;;;;;;;20.90;15.50;;;21.50;90.50;;;;;;5056174;28;20024;-83
2021/05/27 02:37:06;;;;;;;21.23;16.30;;;21.50;90.50;;;;;;5039378;28;20036;-83
2021/05/27 02:39:31;;;;;;;20.88;15.88;;;21.50;90.50;;;;;;5074007;28;20029;-83
2021/05/27 02:41:57;;;;;;;19.20;15.23;;;21.50;90.50;;;;;;5073900;28;20021;-82
2021/05/27 02:44:23;;;;;;;20.50;14.80;;;21.50;90.50;;;;;;5056363;28;20040;-82
2021/05/27 02:46:48;;;;;;;20.38;15.32;;;21.50;90.50;;;;;;5055807;28;20087;-82
2021/05/27 02:49:14;;;;;;;19.88;15.35;;;21.50;90.50;;;;;;5056238;28;20482;-82
2021/05/27 02:51:40;;;;;;;20.30;15.57;;;21.50;90.50;;;;;;5055606;28;20398;-83
2021/05/27 02:54:05;;;;;;;21.05;15.13;;;21.50;90.50;;;;;;5039322;28;20463;-83
2021/05/27 02:56:31;;;;;;;20.38;15.55;;;21.50;90.40;;;;;;5039233;28;20036;-83
2021/05/27 02:58:57;;;;;;;20.02;14.45;;;21.50;90.40;;;;;;5039377;28;20466;-82
2021/05/27 03:01:23;;;;;;;19.40;15.23;;;21.50;90.40;;;;;;5022862;28;20027;-82
2021/05/27 03:03:48;;;;;;;21.05;15.70;;;21.50;90.40;;;;;;5055439;28;20479;-82
2021/05/27 03:06:14;;;;;;;19.35;14.70;;;21.50;90.40;;;;;;5073703;28;20482;-82
2021/05/27 03:08:41;;;;;;;17.70;13.90;;;21.50;90.50;;;;;;5054581;28;20398;-82
2021/05/27 03:11:07;;;;;;;19.33;14.98;;;21.50;90.40;;;;;;5055899;28;20035;-82
2021/05/27 03:13:34;;;;;;;19.85;15.13;;;21.50;90.50;;;;;;5039081;28;20115;-83
2021/05/27 03:16:00;;;;;;;20.55;14.23;;;21.50;90.40;;;;;;5055255;28;20029;-82
2021/05/27 03:18:27;;;;;;;18.70;14.65;;;21.50;90.40;;;;;;5055757;28;20039;-82
2021/05/27 03:20:53;;;;;;;21.00;15.13;;;21.50;90.40;;;;;;5038761;28;20032;-83
2021/05/27 03:23:19;;;;;;;19.85;15.32;;;21.50;90.40;;;;;;5055498;28;20021;-82
2021/05/27 03:25:44;;;;;;;20.77;14.32;;;21.50;90.40;;;;;;5038683;28;20032;-82
2021/05/27 03:28:10;;;;;;;16.65;13.48;;;21.50;90.40;;;;;;5055463;28;20410;-82
2021/05/27 03:30:36;;;;;;;19.20;14.70;;;21.50;90.40;;;;;;5055366;28;20458;-83
2021/05/27 03:33:02;;;;;;;18.45;14.10;;;21.50;90.40;;;;;;5073297;28;20021;-82
2021/05/27 03:35:28;;;;;;;17.63;14.02;;;21.50;90.40;;;;;;5073427;28;20559;-83
2021/05/27 03:37:54;;;;;;;18.27;13.57;;;21.50;90.40;;;;;;5038383;28;20070;-82
2021/05/27 03:40:19;;;;;;;16.55;13.18;;;21.50;90.40;;;;;;5055071;28;20498;-83
2021/05/27 03:42:48;;;;;;;20.48;14.55;;;21.50;90.40;;;;;;5038471;28;20024;-82
2021/05/27 03:45:19;;;;;;;18.48;14.40;;;21.50;90.40;;;;;;5073231;28;20027;-82
2021/05/27 03:47:45;;;;;;;18.20;13.30;;;21.50;90.40;;;;;;5072825;28;20043;-82
2021/05/27 03:50:13;;;;;;;19.00;13.90;;;21.50;90.40;;;;;;5073141;28;20021;-82
2021/05/27 03:52:39;;;;;;;18.10;13.43;;;21.50;90.40;;;;;;5054767;28;20409;-84
2021/05/27 03:55:13;;;;;;;17.48;13.75;;;21.40;90.40;;;;;;5073031;28;20024;-82
2021/05/27 03:57:39;;;;;;;19.67;15.00;;;21.50;90.40;;;;;;5055325;28;20032;-84
2021/05/27 04:02:56;;;;;;;16.95;13.43;;;21.40;90.40;;;;;;5072825;28;20448;-82
2021/05/27 04:08:06;;;;;;;17.42;12.82;;;21.40;90.40;;;;;;5057663;28;20132;-82
2021/05/27 04:10:32;;;;;;;17.58;13.63;;;21.40;90.40;;;;;;5054948;28;20060;-83
2021/05/27 04:12:58;;;;;;;17.95;13.50;;;21.40;90.40;;;;;;5072800;28;20032;-83
2021/05/27 04:15:29;;;;;;;15.68;12.52;;;21.40;90.50;;;;;;5054816;28;20123;-83
2021/05/27 04:18:15;;;;;;;16.50;13.20;;;21.40;90.50;;;;;;5054615;28;20520;-83
2021/05/27 04:20:55;;;;;;;17.80;13.32;;;21.50;90.50;;;;;;5056607;28;20029;-86
2021/05/27 04:23:36;;;;;;;16.67;13.13;;;21.40;90.70;;;;;;5076728;28;20024;-83
2021/05/27 04:26:20;;;;;;;18.10;14.25;;;21.40;90.50;;;;;;5058664;28;20405;-83
2021/05/27 04:28:47;;;;;;;17.63;13.07;;;21.50;90.50;;;;;;5076412;28;20044;-83
2021/05/27 04:31:17;;;;;;;18.52;13.13;;;21.40;90.50;;;;;;5076645;28;20033;-82
2021/05/27 04:33:42;;;;;;;15.70;12.48;;;21.40;90.50;;;;;;5076677;28;20100;-83
2021/05/27 04:36:12;;;;;;;16.85;13.00;;;21.40;90.50;;;;;;5076832;28;20059;-82
2021/05/27 04:38:39;;;;;;;17.80;12.55;;;21.40;90.50;;;;;;5058514;28;20032;-82
2021/05/27 04:41:05;;;;;;;15.65;11.90;;;21.40;90.50;;;;;;5058217;28;20461;-82
2021/05/27 04:43:31;;;;;;;16.75;12.60;;;21.40;90.40;;;;;;5056732;28;20025;-82
2021/05/27 04:45:57;;;;;;;16.55;12.65;;;21.40;90.40;;;;;;5058200;28;20029;-82
2021/05/27 04:48:23;;;;;;;16.50;11.85;;;21.50;90.50;;;;;;5075903;28;20086;-83
2021/05/27 04:50:49;;;;;;;17.48;13.00;;;21.40;90.40;;;;;;5041706;28;20033;-83
2021/05/27 04:53:20;;;;;;;17.52;12.75;;;21.40;90.40;;;;;;5058364;28;20072;-83
2021/05/27 04:55:47;;;;;;;16.70;12.40;;;21.40;90.40;;;;;;5076236;28;20036;-82
2021/05/27 04:58:13;;;;;;;18.20;13.10;;;21.40;90.40;;;;;;5058394;28;20043;-82
2021/05/27 05:00:39;;;;;;;17.27;12.60;;;21.40;90.40;;;;;;5025160;28;20048;-81
2021/05/27 05:03:05;;;;;;;16.42;12.43;;;21.40;90.40;;;;;;5075768;28;20043;-82
2021/05/27 05:05:33;;;;;;;17.55;12.80;;;21.40;90.40;;;;;;5076503;28;20028;-82
2021/05/27 05:07:58;;;;;;;16.83;13.02;;;21.40;90.40;;;;;;5075687;28;20097;-82
2021/05/27 05:10:25;;;;;;;16.45;12.75;;;21.40;90.40;;;;;;5075490;28;20519;-82
2021/05/27 05:12:52;;;;;;;17.45;12.82;;;21.40;90.40;;;;;;5057839;28;20059;-82
2021/05/27 05:15:24;;;;;;;16.83;13.48;;;21.40;90.40;;;;;;5075833;28;20020;-81
2021/05/27 05:17:57;;;;;;;16.38;12.30;;;21.40;90.40;;;;;;5057714;28;20024;-83
2021/05/27 05:20:37;;;;;;;18.27;13.57;;;21.50;90.50;;;;;;5075695;28;20082;-81
2021/05/27 05:23:04;;;;;;;19.40;13.85;;;21.40;90.40;;;;;;5075566;28;20025;-82
2021/05/27 05:25:31;;;;;;;18.77;13.80;;;21.40;90.40;;;;;;5057937;28;20020;-83
2021/05/27 05:27:57;;;;;;;18.60;13.63;;;21.40;90.40;;;;;;5057610;28;20029;-82
2021/05/27 05:30:25;;;;;;;20.30;14.90;;;21.40;90.40;;;;;;5057644;28;20049;-81
2021/05/27 05:32:52;;;;;;;18.55;14.48;;;21.40;90.40;;;;;;5074604;28;20028;-81
2021/05/27 05:35:19;;;;;;;19.85;14.93;;;21.40;90.40;;;;;;5040853;28;20107;-82
2021/05/27 05:37:44;;;;;;;21.25;14.52;;;21.40;90.40;;;;;;5075106;28;20381;-82
2021/05/27 05:40:12;;;;;;;21.73;14.35;;;21.40;90.40;;;;;;5057171;28;20120;-83
2021/05/27 05:42:38;;;;;;;18.80;14.68;;;21.40;90.40;;;;;;5057549;28;20028;-82
2021/05/27 05:45:06;;;;;;;19.73;14.70;;;21.40;90.40;;;;;;5040500;28;20411;-83
2021/05/27 05:47:32;;;;;;;20.73;14.13;;;21.40;90.40;;;;;;5040306;28;20040;-83
2021/05/27 05:49:58;;;;;;;22.10;15.38;;;21.40;90.40;;;;;;5057187;28;20027;-83
2021/05/27 05:52:24;;;;;;;19.27;15.18;;;21.40;90.40;;;;;;5057024;28;20113;-83
2021/05/27 05:54:50;;;;;;;20.13;14.98;;;21.40;90.40;;;;;;5057176;28;20033;-83
2021/05/27 05:57:15;;;;;;;20.27;14.65;;;21.40;90.50;;;;;;5055182;28;20043;-82
2021/05/27 05:59:41;;;;;;;20.52;15.82;;;21.40;90.50;;;;;;5040423;28;20033;-82
2021/05/27 06:02:07;;;;;;;21.95;15.80;;;21.40;90.50;;;;;;5056758;28;20032;-83
2021/05/27 06:04:33;;;;;;;21.08;16.13;;;21.40;90.50;;;;;;5057041;28;20024;-82
2021/05/27 06:06:59;;;;;;;21.52;15.88;;;21.40;90.50;;;;;;5056788;28;20458;-84
2021/05/27 06:09:25;;;;;;;21.38;15.95;;;21.40;90.50;;;;;;5056859;28;20040;-82
2021/05/27 06:11:54;;;;;;;20.55;16.02;;;21.40;90.50;;;;;;5056615;28;20436;-82
2021/05/27 06:14:20;;;;;;;20.65;15.82;;;21.40;90.50;;;;;;5074100;28;20455;-82
2021/05/27 06:16:46;;;;;;;22.40;16.80;;;21.40;90.50;;;;;;5040217;28;20390;-82
2021/05/27 06:19:12;;;;;;;24.35;17.58;;;21.40;90.50;;;;;;5039698;28;20032;-82
2021/05/27 06:21:38;;;;;;;19.70;14.85;;;21.40;90.50;;;;;;5074488;28;20027;-82
2021/05/27 06:24:04;;;;;;;21.83;15.50;;;21.40;90.50;;;;;;5056124;28;20032;-83
2021/05/27 06:26:31;;;;;;;22.73;15.80;;;21.40;90.50;;;;;;5056451;28;20111;-83
2021/05/27 06:28:57;;;;;;;20.40;15.27;;;21.40;90.50;;;;;;5074371;28;20041;-83
2021/05/27 06:31:23;;;;;;;20.33;15.57;;;21.40;90.50;;;;;;5039700;28;20462;-83
2021/05/27 06:33:49;;;;;;;21.20;15.48;;;21.40;90.40;;;;;;5056418;28;20039;-83
2021/05/27 06:36:15;;;;;;;18.90;14.63;;;21.40;90.40;;;;;;5039502;28;20036;-83
2021/05/27 06:38:41;;;;;;;19.08;14.93;;;21.40;90.40;;;;;;5039777;28;20076;-83
2021/05/27 06:41:07;;;;;;;21.33;14.75;;;21.40;90.40;;;;;;5023018;28;20028;-84
2021/05/27 06:43:33;;;;;;;18.02;14.23;;;21.40;90.40;;;;;;5056504;28;20024;-83
2021/05/27 06:45:59;;;;;;;16.98;14.15;;;21.40;90.40;;;;;;5055992;28;20100;-84
2021/05/27 06:48:25;;;;;;;18.15;14.45;;;21.50;90.40;;;;;;5073809;28;20162;-86
2021/05/27 06:50:51;;;;;;;18.10;14.27;;;21.50;90.40;;;;;;5023035;28;20526;-83
2021/05/27 06:53:17;;;;;;;20.20;15.05;;;21.40;90.40;;;;;;5055289;28;20044;-83
2021/05/27 06:55:44;;;;;;;18.60;14.10;;;21.50;90.50;;;;;;5056103;28;20041;-82
2021/05/27 06:58:10;;;;;;;17.88;13.27;;;21.40;90.40;;;;;;5054892;28;20029;-82
2021/05/27 07:00:37;;;;;;;18.75;14.85;;;21.40;90.50;;;;;;5073555;28;20029;-83
2021/05/27 07:03:04;;;;;;;19.08;14.88;;;21.40;90.50;;;;;;5073769;28;20028;-82
2021/05/27 07:05:30;;;;;;;17.95;14.02;;;21.40;90.50;;;;;;5055981;28;20028;-82
2021/05/27 07:07:57;;;;;;;18.50;13.73;;;21.40;90.50;;;;;;5055877;28;20436;-82
2021/05/27 07:10:23;;;;;;;17.98;13.85;;;21.50;90.50;;;;;;5073375;28;20463;-82
2021/05/27 07:12:55;;;;;;;16.67;13.20;;;21.40;90.50;;;;;;5039046;28;20036;-82
2021/05/27 07:15:23;;;;;;;20.90;15.27;;;21.40;90.50;;;;;;5055430;28;20117;-82
2021/05/27 07:17:50;;;;;;;20.15;13.95;;;21.50;90.50;;;;;;5073430;28;20094;-81
2021/05/27 07:20:17;;;;;;;16.70;13.23;;;21.40;90.50;;;;;;5073223;28;20028;-85
2021/05/27 07:22:43;;;;;;;18.65;13.85;;;21.40;90.50;;;;;;5055836;28;20082;-81
2021/05/27 07:25:10;;;;;;;17.77;13.43;;;21.40;90.50;;;;;;5055257;28;20036;-82
2021/05/27 07:27:36;;;;;;;18.95;13.32;;;21.40;90.60;;;;;;5055577;28;20119;-81
2021/05/27 07:30:05;;;;;;;18.08;12.88;;;21.40;90.50;;;;;;5073743;28;20059;-81
2021/05/27 07:32:31;;;;;;;16.08;12.32;;;21.40;90.50;;;;;;5073166;28;20024;-81
2021/05/27 07:34:56;;;;;;;17.92;12.32;;;21.40;90.60;;;;;;5055193;28;20493;-82
2021/05/27 07:37:22;;;;;;;15.80;12.30;;;21.40;90.60;;;;;;5072757;28;20020;-81
2021/05/27 07:39:48;;;;;;;17.80;12.25;;;21.50;90.60;;;;;;5073008;28;20028;-82
2021/05/27 07:42:14;;;;;;;15.00;10.68;;;21.40;90.60;;;;;;5072777;28;20093;-82
2021/05/27 07:44:40;;;;;;;16.45;12.13;;;21.40;90.60;;;;;;5073431;28;20158;-81
2021/05/27 07:47:06;;;;;;;17.05;12.20;;;21.40;90.60;;;;;;5055156;28;20070;-81
2021/05/27 07:49:32;;;;;;;16.25;11.50;;;21.40;90.60;;;;;;5021083;28;20048;-82
2021/05/27 07:51:58;;;;;;;19.27;12.63;;;21.40;90.60;;;;;;5072514;28;20567;-82
2021/05/27 07:54:24;;;;;;;13.25;10.32;;;21.40;90.60;;;;;;5054624;28;20112;-82
2021/05/27 07:56:50;;;;;;;13.18;9.70;;;21.40;90.60;;;;;;5054975;28;20479;-81
2021/05/27 07:59:16;;;;;;;15.93;10.63;;;21.40;90.60;;;;;;5072708;28;20035;-82
2021/05/27 08:01:43;;;;;;;14.50;9.90;;;21.40;90.60;;;;;;5038378;28;20036;-81
2021/05/27 08:04:09;;;;;;;13.38;9.18;;;21.40;90.60;;;;;;5055076;28;20389;-81
2021/05/27 08:06:36;;;;;;;13.60;9.60;;;21.40;90.60;;;;;;5038068;28;20039;-81
2021/05/27 08:09:05;;;;;;;11.90;9.00;;;21.40;90.50;;;;;;5038189;28;20043;-81
2021/05/27 08:11:31;;;;;;;15.45;9.25;;;21.40;90.50;;;;;;5054567;28;20021;-81
2021/05/27 08:13:57;;;;;;;12.00;8.95;;;21.40;90.50;;;;;;5055024;28;20082;-81
2021/05/27 08:16:22;;;;;;;12.95;8.55;;;21.40;90.50;;;;;;5054642;28;20029;-81
2021/05/27 08:18:48;;;;;;;12.70;8.68;;;21.40;90.60;;;;;;5055173;28;20036;-81
2021/05/27 08:21:14;;;;;;;12.40;7.93;;;21.40;90.60;;;;;;5072742;28;20033;-81
2021/05/27 08:23:39;;;;;;;10.40;7.88;;;21.40;90.60;;;;;;5072432;28;20107;-79
2021/05/27 08:26:05;;;;;;;14.10;8.73;;;21.40;90.60;;;;;;5072254;28;20421;-81
2021/05/27 08:28:31;;;;;;;10.38;7.78;;;21.40;90.90;;;;;;5053210;28;20032;-81
2021/05/27 08:30:57;;;;;;;10.25;7.70;;;21.40;90.70;;;;;;5054845;28;20025;-81
2021/05/27 08:33:23;;;;;;;11.00;7.45;;;21.40;90.70;;;;;;5037961;28;20047;-82
2021/05/27 08:35:48;;;;;;;10.82;7.15;;;21.40;90.70;;;;;;5054898;28;20385;-81
2021/05/27 08:38:14;;;;;;;12.18;7.43;;;21.40;90.70;;;;;;5021698;28;20036;-81
2021/05/27 08:40:40;;;;;;;10.73;7.38;;;21.40;90.70;;;;;;5021408;28;20432;-82
2021/05/27 08:43:06;;;;;;;13.60;7.95;;;21.50;90.70;;;;;;5054811;28;20025;-82
2021/05/27 08:45:37;;;;;;;9.88;7.07;;;21.50;90.70;;;;;;5054496;28;20032;-82
2021/05/27 08:48:03;;;;;;;11.10;7.97;;;21.50;90.60;;;;;;5054522;28;20414;-82
2021/05/27 08:50:35;;;;;;;13.50;8.48;;;21.50;90.60;;;;;;5072293;28;20020;-82
2021/05/27 08:53:01;;;;;;;12.32;8.20;;;21.50;90.60;;;;;;5055223;28;20084;-82
2021/05/27 08:55:27;;;;;;;10.80;7.88;;;21.50;90.60;;;;;;5054326;28;20053;-83
2021/05/27 08:57:53;;;;;;;11.68;8.02;;;21.50;90.60;;;;;;5054618;28;20029;-82
2021/05/27 09:00:19;;;;;;;11.93;8.73;;;21.50;90.60;;;;;;5072474;28;20463;-82
2021/05/27 09:03:02;;;;;;;11.60;8.63;;;21.50;90.60;;;;;;5054223;28;20029;-82
2021/05/27 09:05:31;;;;;;;12.73;8.90;;;21.50;90.50;;;;;;5039112;28;20477;-81
2021/05/27 09:07:57;;;;;;;12.07;8.77;;;21.50;90.60;;;;;;5056918;28;20093;-82
2021/05/27 09:10:45;;;;;;;11.68;9.05;;;21.50;90.80;;;;;;5058122;28;20029;-82
2021/05/27 09:13:18;;;;;;;14.23;8.73;;;21.50;90.60;;;;;;5075929;28;20467;-82
2021/05/27 09:15:45;;;;;;;12.70;8.98;;;21.50;90.60;;;;;;5057652;28;20031;-82
2021/05/27 09:18:11;;;;;;;12.77;9.43;;;21.50;90.60;;;;;;5075915;28;20486;-82
2021/05/27 09:20:38;;;;;;;11.30;8.50;;;21.50;90.60;;;;;;5057611;28;20031;-82
2021/05/27 09:23:14;;;;;;;13.20;8.55;;;21.50;90.60;;;;;;5057992;28;20039;-82
2021/05/27 09:25:42;;;;;;;11.45;8.32;;;21.50;90.60;;;;;;5057681;28;20166;-82
2021/05/27 09:28:10;;;;;;;13.15;8.15;;;21.50;90.60;;;;;;5075387;28;20036;-82
2021/05/27 09:30:45;;;;;;;10.18;7.45;;;21.50;90.60;;;;;;5041150;28;20032;-82
2021/05/27 09:33:13;;;;;;;11.18;8.23;;;21.50;90.70;;;;;;5057849;28;20112;-82
2021/05/27 09:35:38;;;;;;;10.75;6.72;;;21.50;90.90;;;;;;5057290;28;20466;-82
2021/05/27 09:38:07;;;;;;;9.80;6.72;;;21.50;90.70;;;;;;5041181;28;20091;-81
2021/05/27 09:40:40;;;;;;;9.45;6.57;;;21.50;90.70;;;;;;5040677;28;20032;-83
2021/05/27 09:43:09;;;;;;;10.85;6.65;;;21.50;91.10;;;;;;5057331;28;20032;-82
2021/05/27 09:45:36;;;;;;;8.55;5.65;;;21.50;91.20;;;;;;5057357;28;20036;-83
2021/05/27 09:48:22;;;;;;;8.85;5.40;;;21.50;91.40;;;;;;5057511;28;20119;-83
2021/05/27 09:50:48;;;;;;;9.05;5.93;;;21.60;91.70;;;;;;5057083;28;20371;-83
2021/05/27 09:53:20;;;;;;;9.23;6.45;;;21.60;91.90;;;;;;5057241;28;20537;-83
2021/05/27 09:55:46;;;;;;;9.93;5.88;;;21.60;92.10;;;;;;5057120;28;20028;-83
2021/05/27 09:58:14;;;;;;;8.57;5.57;;;21.60;92.20;;;;;;5040679;28;20032;-83
2021/05/27 10:00:41;;;;;;;10.02;5.88;;;21.50;92.30;;;;;;5056967;28;20063;-83
2021/05/27 10:03:29;;;;;;;8.85;5.43;;;21.50;92.40;;;;;;5057074;28;20025;-83
2021/05/27 10:05:57;;;;;;;9.07;5.22;;;21.60;92.50;;;;;;5074504;28;20024;-83
2021/05/27 10:08:23;;;;;;;8.32;4.65;;;21.50;92.60;;;;;;5073536;28;20033;-83
2021/05/27 10:10:49;;;;;;;8.43;4.47;;;21.50;92.70;;;;;;5023630;28;20037;-83
2021/05/27 10:13:21;;;;;;;9.05;5.25;;;21.50;92.80;;;;;;5074605;28;20497;-83
2021/05/27 10:15:46;;;;;;;6.38;4.15;;;21.50;92.90;;;;;;5041055;28;20028;-83
2021/05/27 10:18:22;;;;;;;7.47;4.78;;;21.50;92.90;;;;;;5056753;28;20086;-83
2021/05/27 10:20:50;;;;;;;5.47;3.85;;;21.50;93.00;;;;;;5074696;28;20091;-83
2021/05/27 10:23:16;;;;;;;7.82;4.18;;;21.50;93.00;;;;;;5074650;28;20104;-83
2021/05/27 10:25:45;;;;;;;6.72;3.90;;;21.50;93.10;;;;;;5039992;28;20024;-83
2021/05/27 10:28:14;;;;;;;5.93;4.03;;;21.50;93.10;;;;;;5074550;28;20071;-83
2021/05/27 10:30:42;;;;;;;6.68;4.00;;;21.50;93.20;;;;;;5056530;28;20493;-84
2021/05/27 10:33:16;;;;;;;6.00;3.88;;;21.50;93.20;;;;;;5056530;28;20065;-83
2021/05/27 10:36:00;;;;;;;5.00;2.95;;;21.50;93.30;;;;;;5056736;28;20032;-84
2021/05/27 10:41:16;;;;;;;4.18;3.00;;;21.50;93.40;;;;;;5074378;28;20032;-82
2021/05/27 10:44:11;;;;;;;4.63;3.05;;;21.50;93.30;;;;;;5056314;28;20035;-83
2021/05/27 10:46:43;;;;;;;5.10;3.60;;;21.50;93.30;;;;;;5054256;28;20464;-82
2021/05/27 10:49:09;;;;;;;5.65;4.00;;;21.50;93.40;;;;;;5056135;28;20036;-82
2021/05/27 10:51:37;;;;;;;5.60;3.67;;;21.50;93.40;;;;;;5056119;28;20458;-83
2021/05/27 10:54:05;;;;;;;8.02;3.70;;;21.50;93.50;;;;;;5036238;28;20403;-83
2021/05/27 10:56:34;;;;;;;5.85;3.90;;;21.60;93.60;;;;;;5052917;28;20064;-82
2021/05/27 10:58:59;;;;;;;8.95;3.38;;;21.60;93.60;;;;;;5052736;28;20599;-83
2021/05/27 11:01:28;;;;;;;5.03;3.53;;;21.60;93.60;;;;;;5052342;28;20025;-83
2021/05/27 11:03:55;;;;;;;8.23;4.22;;;21.60;93.60;;;;;;5052431;28;20025;-83
2021/05/27 11:06:41;;;;;;;7.18;4.00;;;21.60;93.50;;;;;;5052458;28;20056;-82
2021/05/27 11:09:16;;;;;;;6.57;3.97;;;21.60;93.50;;;;;;5052684;28;20395;-83
2021/05/27 11:11:43;;;;;;;9.30;5.03;;;21.60;93.50;;;;;;5052557;28;20098;-84
2021/05/27 11:14:25;;;;;;;10.25;5.30;;;21.60;93.50;;;;;;5054169;28;20025;-83
2021/05/27 11:17:03;;;;;;;9.80;5.78;;;21.60;93.50;;;;;;5053570;28;20025;-82
2021/05/27 11:19:59;;;;;;;11.65;6.30;;;21.60;93.60;;;;;;5051322;28;20426;-83
2021/05/27 11:27:34;;;;;;;;;;;21.60;93.60;;;;;;5054149;28;20033;-83
2021/05/27 11:30:18;;;;;;;16.15;8.80;;;21.60;93.60;;;;;;5051329;28;19912;-82
2021/05/27 11:32:45;;;;;;;21.10;9.88;;;21.50;93.60;;;;;;5053644;28;20029;-82
2021/05/27 11:35:12;;;;;;;20.70;10.73;;;21.60;93.70;;;;;;5052126;28;20064;-82
2021/05/27 11:37:39;;;;;;;25.65;11.95;;;21.60;93.70;;;;;;5052139;28;20025;-82
2021/05/27 11:40:08;;;;;;;30.75;14.32;;;21.60;93.70;;;;;;5051792;28;20036;-82
2021/05/27 11:42:37;;;;;;;33.20;14.68;;;21.60;93.70;;;;;;5052981;28;20029;-82
2021/05/27 11:45:06;;;;;;;28.60;14.90;;;21.60;93.70;;;;;;5051748;28;20475;-82
2021/05/27 11:47:32;;;;;;;33.72;15.93;;;21.60;93.90;;;;;;5053308;28;20021;-82
2021/05/27 11:50:09;;;;;;;35.95;16.58;;;21.60;93.70;;;;;;5051689;28;20052;-83
2021/05/27 11:52:36;;;;;;;38.30;19.13;;;21.60;93.70;;;;;;5051368;28;20049;-83
2021/05/27 11:55:02;;;;;;;43.35;19.45;;;21.60;93.70;;;;;;5035083;28;20041;-83
2021/05/27 11:57:48;;;;;;;45.35;19.60;;;21.60;93.70;;;;;;5053026;28;20021;-82
2021/05/27 12:00:19;;;;;;;46.25;20.52;;;21.60;93.60;;;;;;5035323;28;20029;-82
2021/05/27 12:02:50;;;;;;;42.28;20.52;;;21.60;93.60;;;;;;5051806;28;20033;-83
2021/05/27 12:05:27;;;;;;;43.42;20.33;;;21.60;93.60;;;;;;5052223;28;20525;-83
2021/05/27 12:08:06;;;;;;;44.40;20.90;;;21.60;93.60;;;;;;5052706;28;20038;-83
2021/05/27 12:10:45;;;;;;;45.45;20.95;;;21.60;93.50;;;;;;5051680;28;20036;-83
2021/05/27 12:13:22;;;;;;;44.00;21.08;;;21.60;93.50;;;;;;5035848;28;20037;-82
2021/05/27 12:15:48;;;;;;;40.30;19.33;;;21.60;93.40;;;;;;5051956;28;20033;-82
2021/05/27 12:18:17;;;;;;;41.47;17.52;;;21.60;93.40;;;;;;5051527;28;20048;-82
2021/05/27 12:20:48;;;;;;;37.08;17.38;;;21.60;93.30;;;;;;5051524;28;20075;-82
2021/05/27 12:23:16;;;;;;;38.40;17.08;;;21.60;93.30;;;;;;5052628;28;20075;-82
2021/05/27 12:25:51;;;;;;;36.55;16.60;;;21.60;93.30;;;;;;5035014;28;20467;-82
2021/05/27 12:28:27;;;;;;;33.55;15.13;;;21.50;93.20;;;;;;5051195;28;20079;-82
2021/05/27 12:30:53;;;;;;;30.23;15.43;;;21.50;93.20;;;;;;5051658;28;20029;-83
2021/05/27 12:33:21;;;;;;;30.30;14.23;;;21.50;93.20;;;;;;5052390;28;20021;-82
2021/05/27 12:35:47;;;;;;;26.58;13.10;;;21.50;93.30;;;;;;5051334;28;20033;-81
2021/05/27 12:38:29;;;;;;;22.52;12.10;;;21.50;93.40;;;;;;5051204;28;20554;-82
2021/05/27 12:41:13;;;;;;;23.63;12.23;;;21.50;93.50;;;;;;5053419;28;20056;-82
2021/05/27 12:43:42;;;;;;;23.35;12.38;;;21.50;93.70;;;;;;5055098;28;20025;-82
2021/05/27 12:46:09;;;;;;;21.70;10.43;;;21.50;93.80;;;;;;5055090;28;20060;-82
2021/05/27 12:48:53;;;;;;;20.38;11.32;;;21.60;94.00;;;;;;5022421;28;20037;-82
2021/05/27 12:51:21;;;;;;;17.67;9.80;;;21.60;94.00;;;;;;5055077;28;20369;-82